sensor_id;sensor_type;location;lat;lon;timestamp;P1;durP1;ratioP1;P2;durP2;ratioP2
70985;SDS011;58645;43.068;25.610;2023-05-27T00:02:03;9.25;;;5.80;;
70985;SDS011;58645;43.068;25.610;2023-05-27T00:04:28;8.18;;;5.68;;
70985;SDS011;58645;43.068;25.610;2023-05-27T00:06:54;7.85;;;5.65;;
70985;SDS011;58645;43.068;25.610;2023-05-27T00:09:20;10.23;;;5.55;;
70985;SDS011;58645;43.068;25.610;2023-05-27T00:11:46;8.93;;;5.68;;
70985;SDS011;58645;43.068;25.610;2023-05-27T00:14:12;10.40;;;5.85;;
70985;SDS011;58645;43.068;25.610;2023-05-27T00:16:37;9.35;;;5.82;;
70985;SDS011;58645;43.068;25.610;2023-05-27T00:19:03;9.82;;;6.43;;
70985;SDS011;58645;43.068;25.610;2023-05-27T00:21:30;18.52;;;7.25;;
70985;SDS011;58645;43.068;25.610;2023-05-27T00:23:56;9.65;;;7.18;;
70985;SDS011;58645;43.068;25.610;2023-05-27T00:26:24;11.40;;;6.75;;
70985;SDS011;58645;43.068;25.610;2023-05-27T00:31:16;10.55;;;7.03;;
70985;SDS011;58645;43.068;25.610;2023-05-27T00:33:42;11.10;;;7.47;;
70985;SDS011;58645;43.068;25.610;2023-05-27T00:38:34;13.02;;;6.97;;
70985;SDS011;58645;43.068;25.610;2023-05-27T00:41:00;12.70;;;7.80;;
70985;SDS011;58645;43.068;25.610;2023-05-27T00:43:28;13.60;;;7.82;;
70985;SDS011;58645;43.068;25.610;2023-05-27T00:45:57;10.77;;;7.22;;
70985;SDS011;58645;43.068;25.610;2023-05-27T00:48:23;12.48;;;7.68;;
70985;SDS011;58645;43.068;25.610;2023-05-27T00:50:50;10.80;;;6.88;;
70985;SDS011;58645;43.068;25.610;2023-05-27T00:53:16;12.43;;;7.80;;
70985;SDS011;58645;43.068;25.610;2023-05-27T00:55:42;15.07;;;7.63;;
70985;SDS011;58645;43.068;25.610;2023-05-27T00:58:08;13.15;;;7.68;;
70985;SDS011;58645;43.068;25.610;2023-05-27T01:00:34;13.48;;;7.15;;
70985;SDS011;58645;43.068;25.610;2023-05-27T01:03:06;11.60;;;7.88;;
70985;SDS011;58645;43.068;25.610;2023-05-27T01:05:33;14.68;;;8.50;;
70985;SDS011;58645;43.068;25.610;2023-05-27T01:11:01;12.45;;;8.80;;
70985;SDS011;58645;43.068;25.610;2023-05-27T01:13:41;14.73;;;8.30;;
70985;SDS011;58645;43.068;25.610;2023-05-27T01:16:12;13.30;;;7.53;;
70985;SDS011;58645;43.068;25.610;2023-05-27T01:18:40;13.90;;;8.55;;
70985;SDS011;58645;43.068;25.610;2023-05-27T01:21:13;14.38;;;8.82;;
70985;SDS011;58645;43.068;25.610;2023-05-27T01:23:45;13.20;;;7.32;;
70985;SDS011;58645;43.068;25.610;2023-05-27T01:26:12;14.52;;;7.63;;
70985;SDS011;58645;43.068;25.610;2023-05-27T01:28:38;12.07;;;7.00;;
70985;SDS011;58645;43.068;25.610;2023-05-27T01:31:12;12.93;;;7.70;;
70985;SDS011;58645;43.068;25.610;2023-05-27T01:33:48;11.68;;;8.20;;
70985;SDS011;58645;43.068;25.610;2023-05-27T01:36:20;11.68;;;7.10;;
70985;SDS011;58645;43.068;25.610;2023-05-27T01:38:50;12.55;;;6.72;;
70985;SDS011;58645;43.068;25.610;2023-05-27T01:41:18;14.07;;;7.68;;
70985;SDS011;58645;43.068;25.610;2023-05-27T01:43:44;13.68;;;7.10;;
70985;SDS011;58645;43.068;25.610;2023-05-27T01:46:11;14.48;;;7.00;;
70985;SDS011;58645;43.068;25.610;2023-05-27T01:48:37;12.75;;;8.63;;
70985;SDS011;58645;43.068;25.610;2023-05-27T01:51:02;12.20;;;7.47;;
70985;SDS011;58645;43.068;25.610;2023-05-27T01:53:28;13.35;;;9.40;;
70985;SDS011;58645;43.068;25.610;2023-05-27T01:55:54;16.15;;;8.98;;
70985;SDS011;58645;43.068;25.610;2023-05-27T01:58:20;15.18;;;7.60;;
70985;SDS011;58645;43.068;25.610;2023-05-27T02:00:46;14.35;;;8.15;;
70985;SDS011;58645;43.068;25.610;2023-05-27T02:03:11;14.45;;;9.05;;
70985;SDS011;58645;43.068;25.610;2023-05-27T02:05:37;15.52;;;8.95;;
70985;SDS011;58645;43.068;25.610;2023-05-27T02:08:03;17.20;;;9.50;;
70985;SDS011;58645;43.068;25.610;2023-05-27T02:10:29;16.52;;;8.98;;
70985;SDS011;58645;43.068;25.610;2023-05-27T02:12:55;16.77;;;10.15;;
70985;SDS011;58645;43.068;25.610;2023-05-27T02:15:20;17.73;;;9.68;;
70985;SDS011;58645;43.068;25.610;2023-05-27T02:17:49;19.00;;;10.77;;
70985;SDS011;58645;43.068;25.610;2023-05-27T02:20:21;18.50;;;9.63;;
70985;SDS011;58645;43.068;25.610;2023-05-27T02:25:17;17.30;;;9.40;;
70985;SDS011;58645;43.068;25.610;2023-05-27T02:27:43;12.27;;;8.13;;
70985;SDS011;58645;43.068;25.610;2023-05-27T02:30:13;15.52;;;9.50;;
70985;SDS011;58645;43.068;25.610;2023-05-27T02:32:42;14.35;;;7.97;;
70985;SDS011;58645;43.068;25.610;2023-05-27T02:37:35;12.88;;;7.90;;
70985;SDS011;58645;43.068;25.610;2023-05-27T02:40:01;14.25;;;7.03;;
70985;SDS011;58645;43.068;25.610;2023-05-27T02:42:27;11.25;;;6.90;;
70985;SDS011;58645;43.068;25.610;2023-05-27T02:44:53;10.32;;;7.00;;
70985;SDS011;58645;43.068;25.610;2023-05-27T02:47:19;12.95;;;7.03;;
70985;SDS011;58645;43.068;25.610;2023-05-27T02:49:45;12.73;;;6.53;;
70985;SDS011;58645;43.068;25.610;2023-05-27T02:52:10;10.88;;;6.40;;
70985;SDS011;58645;43.068;25.610;2023-05-27T02:54:36;11.73;;;6.95;;
70985;SDS011;58645;43.068;25.610;2023-05-27T02:57:02;11.93;;;6.18;;
70985;SDS011;58645;43.068;25.610;2023-05-27T02:59:28;10.10;;;6.78;;
70985;SDS011;58645;43.068;25.610;2023-05-27T03:01:53;10.30;;;6.40;;
70985;SDS011;58645;43.068;25.610;2023-05-27T03:04:19;13.38;;;6.32;;
70985;SDS011;58645;43.068;25.610;2023-05-27T03:09:13;12.20;;;7.15;;
70985;SDS011;58645;43.068;25.610;2023-05-27T03:11:39;14.73;;;8.57;;
70985;SDS011;58645;43.068;25.610;2023-05-27T03:14:05;12.95;;;7.72;;
70985;SDS011;58645;43.068;25.610;2023-05-27T03:16:31;13.18;;;8.07;;
70985;SDS011;58645;43.068;25.610;2023-05-27T03:18:57;13.57;;;8.02;;
70985;SDS011;58645;43.068;25.610;2023-05-27T03:21:22;13.85;;;7.95;;
70985;SDS011;58645;43.068;25.610;2023-05-27T03:23:48;14.02;;;7.75;;
70985;SDS011;58645;43.068;25.610;2023-05-27T03:26:14;13.38;;;8.20;;
70985;SDS011;58645;43.068;25.610;2023-05-27T03:28:40;13.55;;;8.55;;
70985;SDS011;58645;43.068;25.610;2023-05-27T03:31:05;15.10;;;9.13;;
70985;SDS011;58645;43.068;25.610;2023-05-27T03:33:31;12.63;;;7.28;;
70985;SDS011;58645;43.068;25.610;2023-05-27T03:35:57;13.93;;;8.20;;
70985;SDS011;58645;43.068;25.610;2023-05-27T03:38:23;12.43;;;8.07;;
70985;SDS011;58645;43.068;25.610;2023-05-27T03:40:48;12.70;;;7.35;;
70985;SDS011;58645;43.068;25.610;2023-05-27T03:43:14;14.82;;;8.05;;
70985;SDS011;58645;43.068;25.610;2023-05-27T03:45:40;13.43;;;8.73;;
70985;SDS011;58645;43.068;25.610;2023-05-27T03:48:06;15.98;;;7.47;;
70985;SDS011;58645;43.068;25.610;2023-05-27T03:50:33;14.93;;;7.60;;
70985;SDS011;58645;43.068;25.610;2023-05-27T03:52:59;12.60;;;8.05;;
70985;SDS011;58645;43.068;25.610;2023-05-27T03:55:25;14.88;;;8.27;;
70985;SDS011;58645;43.068;25.610;2023-05-27T03:57:51;12.95;;;8.52;;
70985;SDS011;58645;43.068;25.610;2023-05-27T04:00:17;16.88;;;8.07;;
70985;SDS011;58645;43.068;25.610;2023-05-27T04:02:43;13.20;;;8.02;;
70985;SDS011;58645;43.068;25.610;2023-05-27T04:05:08;14.50;;;8.93;;
70985;SDS011;58645;43.068;25.610;2023-05-27T04:07:34;15.50;;;8.93;;
70985;SDS011;58645;43.068;25.610;2023-05-27T04:10:00;14.07;;;8.50;;
70985;SDS011;58645;43.068;25.610;2023-05-27T04:12:26;13.02;;;8.68;;
70985;SDS011;58645;43.068;25.610;2023-05-27T04:14:51;13.18;;;7.65;;
70985;SDS011;58645;43.068;25.610;2023-05-27T04:17:17;13.55;;;7.40;;
70985;SDS011;58645;43.068;25.610;2023-05-27T04:19:43;12.35;;;7.93;;
70985;SDS011;58645;43.068;25.610;2023-05-27T04:22:09;12.63;;;8.40;;
70985;SDS011;58645;43.068;25.610;2023-05-27T04:24:35;12.52;;;8.25;;
70985;SDS011;58645;43.068;25.610;2023-05-27T04:27:00;12.88;;;7.63;;
70985;SDS011;58645;43.068;25.610;2023-05-27T04:29:27;12.30;;;7.15;;
70985;SDS011;58645;43.068;25.610;2023-05-27T04:31:53;13.98;;;7.68;;
70985;SDS011;58645;43.068;25.610;2023-05-27T04:34:21;12.60;;;8.73;;
70985;SDS011;58645;43.068;25.610;2023-05-27T04:36:47;14.10;;;9.68;;
70985;SDS011;58645;43.068;25.610;2023-05-27T04:39:15;13.73;;;8.43;;
70985;SDS011;58645;43.068;25.610;2023-05-27T04:41:41;15.93;;;9.13;;
70985;SDS011;58645;43.068;25.610;2023-05-27T04:44:07;13.30;;;8.05;;
70985;SDS011;58645;43.068;25.610;2023-05-27T04:46:33;14.25;;;8.27;;
70985;SDS011;58645;43.068;25.610;2023-05-27T04:48:59;12.80;;;8.55;;
70985;SDS011;58645;43.068;25.610;2023-05-27T04:51:25;14.63;;;8.75;;
70985;SDS011;58645;43.068;25.610;2023-05-27T04:53:52;11.70;;;7.57;;
70985;SDS011;58645;43.068;25.610;2023-05-27T04:56:19;10.43;;;6.40;;
70985;SDS011;58645;43.068;25.610;2023-05-27T04:58:45;10.43;;;7.57;;
70985;SDS011;58645;43.068;25.610;2023-05-27T05:01:13;8.55;;;5.35;;
70985;SDS011;58645;43.068;25.610;2023-05-27T05:03:43;11.82;;;6.05;;
70985;SDS011;58645;43.068;25.610;2023-05-27T05:06:17;7.00;;;4.88;;
70985;SDS011;58645;43.068;25.610;2023-05-27T05:08:47;6.18;;;4.60;;
70985;SDS011;58645;43.068;25.610;2023-05-27T05:13:39;11.65;;;6.18;;
70985;SDS011;58645;43.068;25.610;2023-05-27T05:16:05;9.85;;;7.13;;
70985;SDS011;58645;43.068;25.610;2023-05-27T05:18:31;10.38;;;5.82;;
70985;SDS011;58645;43.068;25.610;2023-05-27T05:20:57;7.88;;;5.65;;
70985;SDS011;58645;43.068;25.610;2023-05-27T05:23:22;10.07;;;5.70;;
70985;SDS011;58645;43.068;25.610;2023-05-27T05:25:48;8.65;;;4.80;;
70985;SDS011;58645;43.068;25.610;2023-05-27T05:28:20;6.82;;;4.88;;
70985;SDS011;58645;43.068;25.610;2023-05-27T05:30:46;7.97;;;5.25;;
70985;SDS011;58645;43.068;25.610;2023-05-27T05:33:11;10.95;;;5.85;;
70985;SDS011;58645;43.068;25.610;2023-05-27T05:35:37;9.38;;;5.63;;
70985;SDS011;58645;43.068;25.610;2023-05-27T05:38:03;10.95;;;7.32;;
70985;SDS011;58645;43.068;25.610;2023-05-27T05:40:29;10.52;;;6.88;;
70985;SDS011;58645;43.068;25.610;2023-05-27T05:42:54;8.93;;;5.68;;
70985;SDS011;58645;43.068;25.610;2023-05-27T05:45:20;9.35;;;5.65;;
70985;SDS011;58645;43.068;25.610;2023-05-27T05:47:46;8.88;;;5.55;;
70985;SDS011;58645;43.068;25.610;2023-05-27T05:50:11;13.18;;;7.45;;
70985;SDS011;58645;43.068;25.610;2023-05-27T05:52:37;12.98;;;7.70;;
70985;SDS011;58645;43.068;25.610;2023-05-27T05:55:03;14.30;;;8.65;;
70985;SDS011;58645;43.068;25.610;2023-05-27T05:57:30;13.07;;;7.57;;
70985;SDS011;58645;43.068;25.610;2023-05-27T05:59:57;12.30;;;7.00;;
70985;SDS011;58645;43.068;25.610;2023-05-27T06:02:23;12.95;;;7.30;;
70985;SDS011;58645;43.068;25.610;2023-05-27T06:04:50;11.20;;;6.75;;
70985;SDS011;58645;43.068;25.610;2023-05-27T06:07:16;12.25;;;6.03;;
70985;SDS011;58645;43.068;25.610;2023-05-27T06:09:42;11.23;;;6.65;;
70985;SDS011;58645;43.068;25.610;2023-05-27T06:12:07;13.23;;;7.95;;
70985;SDS011;58645;43.068;25.610;2023-05-27T06:14:33;8.93;;;5.65;;
70985;SDS011;58645;43.068;25.610;2023-05-27T06:16:59;11.68;;;6.28;;
70985;SDS011;58645;43.068;25.610;2023-05-27T06:19:25;12.65;;;8.23;;
70985;SDS011;58645;43.068;25.610;2023-05-27T06:21:51;12.18;;;6.63;;
70985;SDS011;58645;43.068;25.610;2023-05-27T06:24:17;12.00;;;6.07;;
70985;SDS011;58645;43.068;25.610;2023-05-27T06:26:44;9.48;;;6.18;;
70985;SDS011;58645;43.068;25.610;2023-05-27T06:29:10;9.98;;;5.80;;
70985;SDS011;58645;43.068;25.610;2023-05-27T06:31:36;9.27;;;6.40;;
70985;SDS011;58645;43.068;25.610;2023-05-27T06:34:01;8.35;;;5.10;;
70985;SDS011;58645;43.068;25.610;2023-05-27T06:36:27;10.55;;;4.72;;
70985;SDS011;58645;43.068;25.610;2023-05-27T06:38:53;8.52;;;5.40;;
70985;SDS011;58645;43.068;25.610;2023-05-27T06:41:19;9.15;;;4.50;;
70985;SDS011;58645;43.068;25.610;2023-05-27T06:43:44;7.78;;;5.22;;
70985;SDS011;58645;43.068;25.610;2023-05-27T06:46:10;10.15;;;5.75;;
70985;SDS011;58645;43.068;25.610;2023-05-27T06:48:36;7.78;;;5.00;;
70985;SDS011;58645;43.068;25.610;2023-05-27T06:51:02;8.85;;;4.93;;
70985;SDS011;58645;43.068;25.610;2023-05-27T06:53:28;8.90;;;5.32;;
70985;SDS011;58645;43.068;25.610;2023-05-27T06:55:53;8.65;;;4.95;;
70985;SDS011;58645;43.068;25.610;2023-05-27T06:58:20;6.47;;;4.07;;
70985;SDS011;58645;43.068;25.610;2023-05-27T07:00:46;6.63;;;4.20;;
70985;SDS011;58645;43.068;25.610;2023-05-27T07:03:12;7.57;;;4.13;;
70985;SDS011;58645;43.068;25.610;2023-05-27T07:05:37;8.10;;;4.43;;
70985;SDS011;58645;43.068;25.610;2023-05-27T07:08:05;7.72;;;4.90;;
70985;SDS011;58645;43.068;25.610;2023-05-27T07:10:31;7.32;;;4.63;;
70985;SDS011;58645;43.068;25.610;2023-05-27T07:12:57;8.93;;;5.15;;
70985;SDS011;58645;43.068;25.610;2023-05-27T07:15:24;6.05;;;4.43;;
70985;SDS011;58645;43.068;25.610;2023-05-27T07:17:50;9.68;;;5.28;;
70985;SDS011;58645;43.068;25.610;2023-05-27T07:20:16;7.30;;;5.38;;
70985;SDS011;58645;43.068;25.610;2023-05-27T07:22:42;7.57;;;5.57;;
70985;SDS011;58645;43.068;25.610;2023-05-27T07:25:08;8.50;;;5.15;;
70985;SDS011;58645;43.068;25.610;2023-05-27T07:27:34;7.65;;;4.93;;
70985;SDS011;58645;43.068;25.610;2023-05-27T07:30:00;7.97;;;4.93;;
70985;SDS011;58645;43.068;25.610;2023-05-27T07:32:25;5.80;;;4.93;;
70985;SDS011;58645;43.068;25.610;2023-05-27T07:34:52;9.02;;;5.40;;
70985;SDS011;58645;43.068;25.610;2023-05-27T07:37:18;10.13;;;5.43;;
70985;SDS011;58645;43.068;25.610;2023-05-27T07:39:44;8.65;;;4.50;;
70985;SDS011;58645;43.068;25.610;2023-05-27T07:42:09;7.93;;;4.30;;
70985;SDS011;58645;43.068;25.610;2023-05-27T07:44:35;5.15;;;3.70;;
70985;SDS011;58645;43.068;25.610;2023-05-27T07:47:01;8.30;;;4.45;;
70985;SDS011;58645;43.068;25.610;2023-05-27T07:49:26;5.82;;;3.50;;
70985;SDS011;58645;43.068;25.610;2023-05-27T07:51:52;4.72;;;3.72;;
70985;SDS011;58645;43.068;25.610;2023-05-27T07:54:18;4.45;;;3.03;;
70985;SDS011;58645;43.068;25.610;2023-05-27T07:56:44;5.45;;;3.38;;
70985;SDS011;58645;43.068;25.610;2023-05-27T07:59:09;4.63;;;3.25;;
70985;SDS011;58645;43.068;25.610;2023-05-27T08:01:35;6.45;;;3.90;;
70985;SDS011;58645;43.068;25.610;2023-05-27T08:04:01;6.00;;;3.83;;
70985;SDS011;58645;43.068;25.610;2023-05-27T08:06:27;5.20;;;3.58;;
70985;SDS011;58645;43.068;25.610;2023-05-27T08:08:52;6.97;;;4.72;;
70985;SDS011;58645;43.068;25.610;2023-05-27T08:11:18;6.57;;;3.55;;
70985;SDS011;58645;43.068;25.610;2023-05-27T08:13:45;4.45;;;3.35;;
70985;SDS011;58645;43.068;25.610;2023-05-27T08:16:10;4.95;;;3.88;;
70985;SDS011;58645;43.068;25.610;2023-05-27T08:18:36;4.10;;;3.17;;
70985;SDS011;58645;43.068;25.610;2023-05-27T08:21:02;4.60;;;3.40;;
70985;SDS011;58645;43.068;25.610;2023-05-27T08:23:28;5.50;;;4.07;;
70985;SDS011;58645;43.068;25.610;2023-05-27T08:25:54;5.72;;;3.78;;
70985;SDS011;58645;43.068;25.610;2023-05-27T08:30:45;5.03;;;3.38;;
70985;SDS011;58645;43.068;25.610;2023-05-27T08:33:11;5.78;;;4.00;;
70985;SDS011;58645;43.068;25.610;2023-05-27T08:35:37;4.80;;;3.60;;
70985;SDS011;58645;43.068;25.610;2023-05-27T08:38:03;4.80;;;3.65;;
70985;SDS011;58645;43.068;25.610;2023-05-27T08:40:29;5.20;;;4.50;;
70985;SDS011;58645;43.068;25.610;2023-05-27T08:42:55;6.13;;;3.53;;
70985;SDS011;58645;43.068;25.610;2023-05-27T08:45:21;5.40;;;3.83;;
70985;SDS011;58645;43.068;25.610;2023-05-27T08:47:47;7.30;;;4.57;;
70985;SDS011;58645;43.068;25.610;2023-05-27T08:50:17;6.47;;;4.60;;
70985;SDS011;58645;43.068;25.610;2023-05-27T08:52:47;7.72;;;3.75;;
70985;SDS011;58645;43.068;25.610;2023-05-27T08:55:17;4.85;;;3.50;;
70985;SDS011;58645;43.068;25.610;2023-05-27T08:57:54;5.97;;;4.70;;
70985;SDS011;58645;43.068;25.610;2023-05-27T09:00:20;5.78;;;4.88;;
70985;SDS011;58645;43.068;25.610;2023-05-27T09:02:46;9.38;;;4.47;;
70985;SDS011;58645;43.068;25.610;2023-05-27T09:05:14;6.22;;;4.93;;
70985;SDS011;58645;43.068;25.610;2023-05-27T09:07:41;7.22;;;5.18;;
70985;SDS011;58645;43.068;25.610;2023-05-27T09:12:33;6.53;;;4.80;;
70985;SDS011;58645;43.068;25.610;2023-05-27T09:14:59;6.53;;;5.18;;
70985;SDS011;58645;43.068;25.610;2023-05-27T09:17:26;7.45;;;5.22;;
70985;SDS011;58645;43.068;25.610;2023-05-27T09:19:52;6.82;;;5.25;;
70985;SDS011;58645;43.068;25.610;2023-05-27T09:22:31;6.38;;;5.32;;
70985;SDS011;58645;43.068;25.610;2023-05-27T09:24:57;5.05;;;4.30;;
70985;SDS011;58645;43.068;25.610;2023-05-27T09:27:29;7.68;;;5.50;;
70985;SDS011;58645;43.068;25.610;2023-05-27T09:29:57;6.15;;;5.55;;
70985;SDS011;58645;43.068;25.610;2023-05-27T09:32:31;8.98;;;4.85;;
70985;SDS011;58645;43.068;25.610;2023-05-27T09:37:24;6.53;;;5.75;;
70985;SDS011;58645;43.068;25.610;2023-05-27T09:40:07;8.02;;;4.57;;
70985;SDS011;58645;43.068;25.610;2023-05-27T09:42:45;6.10;;;5.50;;
70985;SDS011;58645;43.068;25.610;2023-05-27T09:45:19;7.43;;;5.30;;
70985;SDS011;58645;43.068;25.610;2023-05-27T09:47:52;8.60;;;5.53;;
70985;SDS011;58645;43.068;25.610;2023-05-27T09:50:19;7.72;;;5.75;;
70985;SDS011;58645;43.068;25.610;2023-05-27T09:52:47;7.55;;;4.72;;
70985;SDS011;58645;43.068;25.610;2023-05-27T09:55:14;7.50;;;5.63;;
70985;SDS011;58645;43.068;25.610;2023-05-27T09:57:41;9.25;;;5.60;;
70985;SDS011;58645;43.068;25.610;2023-05-27T10:00:08;7.88;;;6.65;;
70985;SDS011;58645;43.068;25.610;2023-05-27T10:02:42;11.52;;;7.00;;
70985;SDS011;58645;43.068;25.610;2023-05-27T10:05:11;9.85;;;5.85;;
70985;SDS011;58645;43.068;25.610;2023-05-27T10:07:39;10.07;;;6.28;;
70985;SDS011;58645;43.068;25.610;2023-05-27T10:10:06;11.98;;;6.68;;
70985;SDS011;58645;43.068;25.610;2023-05-27T10:12:35;10.05;;;6.82;;
70985;SDS011;58645;43.068;25.610;2023-05-27T10:15:02;10.82;;;8.15;;
70985;SDS011;58645;43.068;25.610;2023-05-27T10:17:40;11.02;;;8.18;;
70985;SDS011;58645;43.068;25.610;2023-05-27T10:20:07;10.05;;;7.85;;
70985;SDS011;58645;43.068;25.610;2023-05-27T10:25:11;7.57;;;5.85;;
70985;SDS011;58645;43.068;25.610;2023-05-27T10:27:42;8.63;;;6.53;;
70985;SDS011;58645;43.068;25.610;2023-05-27T10:30:14;12.43;;;7.70;;
70985;SDS011;58645;43.068;25.610;2023-05-27T10:32:47;10.75;;;8.27;;
70985;SDS011;58645;43.068;25.610;2023-05-27T10:35:15;8.25;;;6.75;;
70985;SDS011;58645;43.068;25.610;2023-05-27T10:37:42;9.40;;;6.20;;
70985;SDS011;58645;43.068;25.610;2023-05-27T10:42:35;9.80;;;7.88;;
70985;SDS011;58645;43.068;25.610;2023-05-27T10:45:02;7.68;;;6.07;;
70985;SDS011;58645;43.068;25.610;2023-05-27T10:47:35;7.78;;;7.00;;
70985;SDS011;58645;43.068;25.610;2023-05-27T10:50:11;8.90;;;6.57;;
70985;SDS011;58645;43.068;25.610;2023-05-27T10:52:38;7.40;;;6.60;;
70985;SDS011;58645;43.068;25.610;2023-05-27T10:55:05;8.65;;;7.07;;
70985;SDS011;58645;43.068;25.610;2023-05-27T11:00:00;6.90;;;6.20;;
70985;SDS011;58645;43.068;25.610;2023-05-27T11:02:32;8.65;;;5.50;;
70985;SDS011;58645;43.068;25.610;2023-05-27T11:05:00;7.60;;;5.35;;
70985;SDS011;58645;43.068;25.610;2023-05-27T11:09:52;8.00;;;6.18;;
70985;SDS011;58645;43.068;25.610;2023-05-27T11:12:23;5.13;;;4.50;;
70985;SDS011;58645;43.068;25.610;2023-05-27T11:14:49;7.55;;;4.93;;
70985;SDS011;58645;43.068;25.610;2023-05-27T11:17:20;5.47;;;4.80;;
70985;SDS011;58645;43.068;25.610;2023-05-27T11:19:46;7.97;;;4.85;;
70985;SDS011;58645;43.068;25.610;2023-05-27T11:22:14;6.45;;;5.50;;
70985;SDS011;58645;43.068;25.610;2023-05-27T11:24:41;8.40;;;5.25;;
70985;SDS011;58645;43.068;25.610;2023-05-27T11:27:11;7.15;;;4.55;;
70985;SDS011;58645;43.068;25.610;2023-05-27T11:29:38;5.75;;;4.45;;
70985;SDS011;58645;43.068;25.610;2023-05-27T11:32:04;7.78;;;4.22;;
70985;SDS011;58645;43.068;25.610;2023-05-27T11:34:33;5.95;;;4.25;;
70985;SDS011;58645;43.068;25.610;2023-05-27T11:37:02;6.57;;;5.10;;
70985;SDS011;58645;43.068;25.610;2023-05-27T11:39:29;4.97;;;4.40;;
70985;SDS011;58645;43.068;25.610;2023-05-27T11:41:56;4.80;;;4.30;;
70985;SDS011;58645;43.068;25.610;2023-05-27T11:44:23;6.30;;;3.97;;
70985;SDS011;58645;43.068;25.610;2023-05-27T11:46:51;8.13;;;4.75;;
70985;SDS011;58645;43.068;25.610;2023-05-27T11:49:22;6.35;;;4.85;;
70985;SDS011;58645;43.068;25.610;2023-05-27T11:51:49;5.90;;;3.85;;
70985;SDS011;58645;43.068;25.610;2023-05-27T11:54:19;5.93;;;4.13;;
70985;SDS011;58645;43.068;25.610;2023-05-27T11:56:49;6.18;;;4.38;;
70985;SDS011;58645;43.068;25.610;2023-05-27T11:59:15;7.15;;;3.90;;
70985;SDS011;58645;43.068;25.610;2023-05-27T12:01:41;8.90;;;4.85;;
70985;SDS011;58645;43.068;25.610;2023-05-27T12:04:07;4.75;;;3.95;;
70985;SDS011;58645;43.068;25.610;2023-05-27T12:06:33;4.72;;;3.80;;
70985;SDS011;58645;43.068;25.610;2023-05-27T12:09:02;5.00;;;3.53;;
70985;SDS011;58645;43.068;25.610;2023-05-27T12:11:28;5.13;;;3.60;;
70985;SDS011;58645;43.068;25.610;2023-05-27T12:13:54;5.95;;;4.03;;
70985;SDS011;58645;43.068;25.610;2023-05-27T12:16:19;4.63;;;3.65;;
70985;SDS011;58645;43.068;25.610;2023-05-27T12:18:46;6.55;;;3.92;;
70985;SDS011;58645;43.068;25.610;2023-05-27T12:21:12;7.03;;;3.88;;
70985;SDS011;58645;43.068;25.610;2023-05-27T12:23:38;5.45;;;3.90;;
70985;SDS011;58645;43.068;25.610;2023-05-27T12:26:04;5.93;;;4.18;;
70985;SDS011;58645;43.068;25.610;2023-05-27T12:28:30;5.18;;;3.67;;
70985;SDS011;58645;43.068;25.610;2023-05-27T12:30:56;5.25;;;4.65;;
70985;SDS011;58645;43.068;25.610;2023-05-27T12:33:23;6.57;;;4.50;;
70985;SDS011;58645;43.068;25.610;2023-05-27T12:35:49;5.30;;;4.03;;
70985;SDS011;58645;43.068;25.610;2023-05-27T12:38:14;4.97;;;3.80;;
70985;SDS011;58645;43.068;25.610;2023-05-27T12:40:40;5.03;;;3.80;;
70985;SDS011;58645;43.068;25.610;2023-05-27T12:43:06;6.50;;;4.93;;
70985;SDS011;58645;43.068;25.610;2023-05-27T12:45:32;6.93;;;3.83;;
70985;SDS011;58645;43.068;25.610;2023-05-27T12:47:58;6.72;;;3.90;;
70985;SDS011;58645;43.068;25.610;2023-05-27T12:50:24;7.30;;;5.03;;
70985;SDS011;58645;43.068;25.610;2023-05-27T12:52:50;6.22;;;5.05;;
70985;SDS011;58645;43.068;25.610;2023-05-27T12:55:18;9.23;;;4.78;;
70985;SDS011;58645;43.068;25.610;2023-05-27T12:57:49;5.72;;;4.20;;
70985;SDS011;58645;43.068;25.610;2023-05-27T13:00:16;6.55;;;5.07;;
70985;SDS011;58645;43.068;25.610;2023-05-27T13:02:43;5.50;;;4.60;;
70985;SDS011;58645;43.068;25.610;2023-05-27T13:05:09;7.00;;;4.22;;
70985;SDS011;58645;43.068;25.610;2023-05-27T13:07:36;6.07;;;4.65;;
70985;SDS011;58645;43.068;25.610;2023-05-27T13:10:04;7.78;;;4.70;;
70985;SDS011;58645;43.068;25.610;2023-05-27T13:12:33;4.00;;;3.55;;
70985;SDS011;58645;43.068;25.610;2023-05-27T13:15:00;5.15;;;3.95;;
70985;SDS011;58645;43.068;25.610;2023-05-27T13:17:28;5.00;;;4.50;;
70985;SDS011;58645;43.068;25.610;2023-05-27T13:19:54;7.30;;;4.28;;
70985;SDS011;58645;43.068;25.610;2023-05-27T13:22:20;6.20;;;5.45;;
70985;SDS011;58645;43.068;25.610;2023-05-27T13:24:46;10.80;;;5.28;;
70985;SDS011;58645;43.068;25.610;2023-05-27T13:27:12;6.15;;;4.07;;
70985;SDS011;58645;43.068;25.610;2023-05-27T13:29:39;6.15;;;4.47;;
70985;SDS011;58645;43.068;25.610;2023-05-27T13:32:06;5.30;;;4.20;;
70985;SDS011;58645;43.068;25.610;2023-05-27T13:34:31;5.85;;;5.13;;
70985;SDS011;58645;43.068;25.610;2023-05-27T13:36:57;5.85;;;5.35;;
70985;SDS011;58645;43.068;25.610;2023-05-27T13:39:23;6.07;;;4.50;;
70985;SDS011;58645;43.068;25.610;2023-05-27T13:41:49;5.90;;;4.07;;
70985;SDS011;58645;43.068;25.610;2023-05-27T13:44:15;6.20;;;5.40;;
70985;SDS011;58645;43.068;25.610;2023-05-27T13:46:40;6.20;;;4.55;;
70985;SDS011;58645;43.068;25.610;2023-05-27T13:49:06;8.43;;;5.25;;
70985;SDS011;58645;43.068;25.610;2023-05-27T13:51:32;6.18;;;4.60;;
70985;SDS011;58645;43.068;25.610;2023-05-27T13:54:01;6.22;;;4.75;;
70985;SDS011;58645;43.068;25.610;2023-05-27T13:56:27;9.02;;;4.97;;
70985;SDS011;58645;43.068;25.610;2023-05-27T13:58:52;5.28;;;4.78;;
70985;SDS011;58645;43.068;25.610;2023-05-27T14:01:19;5.70;;;4.35;;
70985;SDS011;58645;43.068;25.610;2023-05-27T14:03:45;7.03;;;4.97;;
70985;SDS011;58645;43.068;25.610;2023-05-27T14:08:36;6.38;;;5.03;;
70985;SDS011;58645;43.068;25.610;2023-05-27T14:13:27;6.60;;;5.43;;
70985;SDS011;58645;43.068;25.610;2023-05-27T14:18:19;6.68;;;4.15;;
70985;SDS011;58645;43.068;25.610;2023-05-27T14:23:10;6.07;;;5.50;;
70985;SDS011;58645;43.068;25.610;2023-05-27T14:25:38;8.90;;;4.50;;
70985;SDS011;58645;43.068;25.610;2023-05-27T14:28:03;6.63;;;5.88;;
70985;SDS011;58645;43.068;25.610;2023-05-27T14:30:31;6.93;;;6.07;;
70985;SDS011;58645;43.068;25.610;2023-05-27T14:33:02;8.30;;;5.40;;
70985;SDS011;58645;43.068;25.610;2023-05-27T14:35:32;7.63;;;5.55;;
70985;SDS011;58645;43.068;25.610;2023-05-27T14:38:01;6.80;;;4.85;;
70985;SDS011;58645;43.068;25.610;2023-05-27T14:40:28;10.98;;;6.18;;
70985;SDS011;58645;43.068;25.610;2023-05-27T14:45:20;8.63;;;5.15;;
70985;SDS011;58645;43.068;25.610;2023-05-27T14:47:47;8.20;;;4.93;;
70985;SDS011;58645;43.068;25.610;2023-05-27T14:50:15;8.32;;;5.05;;
70985;SDS011;58645;43.068;25.610;2023-05-27T14:52:41;8.38;;;5.05;;
70985;SDS011;58645;43.068;25.610;2023-05-27T14:55:07;6.03;;;5.15;;
70985;SDS011;58645;43.068;25.610;2023-05-27T14:57:32;7.43;;;5.60;;
70985;SDS011;58645;43.068;25.610;2023-05-27T15:00:01;7.18;;;5.00;;
70985;SDS011;58645;43.068;25.610;2023-05-27T15:02:30;7.50;;;5.85;;
70985;SDS011;58645;43.068;25.610;2023-05-27T15:04:56;6.57;;;5.25;;
70985;SDS011;58645;43.068;25.610;2023-05-27T15:07:22;8.07;;;5.20;;
70985;SDS011;58645;43.068;25.610;2023-05-27T15:12:13;6.90;;;5.32;;
70985;SDS011;58645;43.068;25.610;2023-05-27T15:17:05;7.75;;;5.10;;
70985;SDS011;58645;43.068;25.610;2023-05-27T15:19:35;9.93;;;6.60;;